createdAt,value
2023-09-20T00:00:16.174Z,53.57
2023-09-20T00:01:18.046Z,53.88
2023-09-20T00:02:19.897Z,53.88
2023-09-20T00:03:21.710Z,53.36
2023-09-20T00:04:23.587Z,53.75
2023-09-20T00:05:25.442Z,54.01
2023-09-20T00:06:28.021Z,54.04
2023-09-20T00:07:29.656Z,53.43
2023-09-20T00:08:31.396Z,54.17
2023-09-20T00:09:33.365Z,53.86
2023-09-20T00:10:35.013Z,53.52
2023-09-20T00:11:36.722Z,55.01
2023-09-20T00:12:38.302Z,54.50
2023-09-20T00:13:39.896Z,54.01
2023-09-20T00:14:41.587Z,53.71
2023-09-20T00:15:44.407Z,53.58
2023-09-20T00:16:46.270Z,54.50
2023-09-20T00:17:48.033Z,53.63
2023-09-20T00:18:49.785Z,53.80
2023-09-20T00:19:51.482Z,55.12
2023-09-20T00:20:53.137Z,55.42
2023-09-20T00:21:54.770Z,54.85
2023-09-20T00:22:56.406Z,55.37
2023-09-20T00:23:57.999Z,54.91
2023-09-20T00:25:00.789Z,56.20
2023-09-20T00:26:02.417Z,57.50
2023-09-20T00:27:04.218Z,57.79
2023-09-20T00:28:06.290Z,58.43
2023-09-20T00:29:08.681Z,59.06
2023-09-20T00:30:11.611Z,60.05
2023-09-20T00:31:13.446Z,60.68
2023-09-20T00:32:15.084Z,60.79
2023-09-20T00:33:16.771Z,61.38
2023-09-20T00:34:18.473Z,61.72
2023-09-20T00:35:23.139Z,62.24
2023-09-20T00:36:24.841Z,61.98
2023-09-20T00:37:26.615Z,62.03
2023-09-20T00:38:28.279Z,61.93
2023-09-20T00:39:29.932Z,62.20
2023-09-20T00:40:34.123Z,61.67
2023-09-20T00:41:35.742Z,61.65
2023-09-20T00:42:37.382Z,61.74
2023-09-20T00:43:39.797Z,61.74
2023-09-20T00:44:41.382Z,61.30
2023-09-20T00:45:43.079Z,61.45
2023-09-20T00:46:45.417Z,60.79
2023-09-20T00:47:52.630Z,60.93
2023-09-20T00:48:56.368Z,60.84
2023-09-20T00:49:58.666Z,60.64
2023-09-20T00:51:00.421Z,60.96
2023-09-20T00:52:04.678Z,60.81
2023-09-20T00:53:09.138Z,60.22
2023-09-20T00:54:10.878Z,60.84
2023-09-20T00:55:22.424Z,60.20
2023-09-20T00:56:24.879Z,60.09
2023-09-20T00:57:27.233Z,60.28
2023-09-20T00:58:30.623Z,60.31
2023-09-20T00:59:34.019Z,60.59
2023-09-20T01:00:38.837Z,60.72
2023-09-20T01:01:41.919Z,60.92
2023-09-20T01:02:45.559Z,61.26
2023-09-20T01:03:48.813Z,60.77
2023-09-20T01:04:50.858Z,60.66
2023-09-20T01:05:52.584Z,61.47
2023-09-20T01:06:54.187Z,60.83
2023-09-20T01:07:57.708Z,61.24
2023-09-20T01:08:59.398Z,61.15
2023-09-20T01:10:01.024Z,61.19
2023-09-20T01:11:02.890Z,61.23
2023-09-20T01:12:06.924Z,61.02
2023-09-20T01:13:11.006Z,60.95
2023-09-20T01:14:13.302Z,61.33
2023-09-20T01:15:15.107Z,61.60
2023-09-20T01:16:16.718Z,61.72
2023-09-20T01:17:19.141Z,61.82
2023-09-20T01:18:20.919Z,62.13
2023-09-20T01:19:22.734Z,62.12
2023-09-20T01:20:28.796Z,61.20
2023-09-20T01:21:30.439Z,61.42
2023-09-20T01:22:31.997Z,61.29
2023-09-20T01:23:36.601Z,61.47
2023-09-20T01:24:39.058Z,61.37
2023-09-20T01:25:44.956Z,62.14
2023-09-20T01:26:49.322Z,61.74
2023-09-20T01:27:52.444Z,61.38
2023-09-20T01:28:54.031Z,60.67
2023-09-20T01:29:55.611Z,60.53
2023-09-20T01:30:59.541Z,60.42
2023-09-20T01:32:03.146Z,60.81
2023-09-20T01:33:08.220Z,60.24
2023-09-20T01:34:10.674Z,59.95
2023-09-20T01:35:17.543Z,59.33
2023-09-20T01:36:19.471Z,59.40
2023-09-20T01:37:21.923Z,59.33
2023-09-20T01:38:23.950Z,59.19
2023-09-20T01:39:26.137Z,58.81
2023-09-20T01:40:27.885Z,58.96
2023-09-20T01:41:29.550Z,59.03
2023-09-20T01:42:31.307Z,59.16
2023-09-20T01:43:32.977Z,59.22
2023-09-20T01:44:38.676Z,59.41
2023-09-20T01:45:44.057Z,59.63
2023-09-20T01:46:45.778Z,59.55
2023-09-20T01:47:50.988Z,59.57
2023-09-20T01:48:54.336Z,59.79
2023-09-20T01:49:56.114Z,59.50
2023-09-20T01:50:58.119Z,59.68
2023-09-20T01:52:02.669Z,59.95
2023-09-20T01:53:11.057Z,59.81
2023-09-20T01:54:12.764Z,59.88
2023-09-20T01:55:16.531Z,59.79
2023-09-20T01:56:18.940Z,59.95
2023-09-20T01:57:20.526Z,60.02
2023-09-20T01:58:22.138Z,59.98
2023-09-20T01:59:23.789Z,59.84
2023-09-20T02:00:30.809Z,59.87
2023-09-20T02:01:32.531Z,59.65
2023-09-20T02:02:35.466Z,59.84
2023-09-20T02:03:37.304Z,59.89
2023-09-20T02:04:38.948Z,59.52
2023-09-20T02:05:41.802Z,59.61
2023-09-20T02:06:43.517Z,60.31
2023-09-20T02:07:46.838Z,61.26
2023-09-20T02:08:49.880Z,61.69
2023-09-20T02:09:51.518Z,61.00
2023-09-20T02:10:53.456Z,60.81
2023-09-20T02:11:55.056Z,61.40
2023-09-20T02:13:00.447Z,61.52
2023-09-20T02:14:02.063Z,61.66
2023-09-20T02:15:08.611Z,61.82
2023-09-20T02:16:11.221Z,62.34
2023-09-20T02:17:12.883Z,62.56
2023-09-20T02:18:14.552Z,61.79
2023-09-20T02:19:18.678Z,61.45
2023-09-20T02:20:22.071Z,61.38
2023-09-20T02:21:23.849Z,61.95
2023-09-20T02:22:25.468Z,62.40
2023-09-20T02:23:29.120Z,62.59
2023-09-20T02:24:30.822Z,62.29
2023-09-20T02:25:32.519Z,62.17
2023-09-20T02:26:34.477Z,62.47
2023-09-20T02:27:36.098Z,61.93
2023-09-20T02:28:37.699Z,61.40
2023-09-20T02:29:39.360Z,61.61
2023-09-20T02:30:42.772Z,61.89
2023-09-20T02:31:44.413Z,61.84
2023-09-20T02:32:47.959Z,61.57
2023-09-20T02:33:49.674Z,61.29
2023-09-20T02:34:52.347Z,61.12
2023-09-20T02:35:53.970Z,61.07
2023-09-20T02:36:57.880Z,61.60
2023-09-20T02:38:06.829Z,62.78
2023-09-20T02:39:10.759Z,62.99
2023-09-20T02:40:15.854Z,62.14
2023-09-20T02:41:17.469Z,63.23
2023-09-20T02:42:20.154Z,63.08
2023-09-20T02:43:24.851Z,62.79
2023-09-20T02:44:26.728Z,62.82
2023-09-20T02:45:34.560Z,63.07
2023-09-20T02:46:36.285Z,62.59
2023-09-20T02:47:38.138Z,62.89
2023-09-20T02:48:40.119Z,63.93
2023-09-20T02:49:42.019Z,63.71
2023-09-20T02:50:45.560Z,63.56
2023-09-20T02:51:51.032Z,63.33
2023-09-20T02:52:54.002Z,62.89
2023-09-20T02:53:55.695Z,63.13
2023-09-20T02:54:57.311Z,63.18
2023-09-20T02:55:58.954Z,63.49
2023-09-20T02:57:00.618Z,63.49
2023-09-20T02:58:02.244Z,63.74
2023-09-20T02:59:07.799Z,63.14
2023-09-20T03:00:22.704Z,64.01
2023-09-20T03:01:25.892Z,64.24
2023-09-20T03:02:29.340Z,63.61
2023-09-20T03:03:31.254Z,64.08
2023-09-20T03:04:33.859Z,63.76
2023-09-20T03:05:37.390Z,64.34
2023-09-20T03:06:39.020Z,63.81
2023-09-20T03:07:43.105Z,63.57
2023-09-20T03:08:46.513Z,63.84
2023-09-20T03:09:48.158Z,63.81
2023-09-20T03:10:49.713Z,63.87
2023-09-20T03:11:56.932Z,63.23
2023-09-20T03:12:59.113Z,62.85
2023-09-20T03:14:04.854Z,62.99
2023-09-20T03:15:11.486Z,63.16
2023-09-20T03:16:20.700Z,62.68
2023-09-20T03:17:22.411Z,63.42
2023-09-20T03:18:24.321Z,63.57
2023-09-20T03:19:25.953Z,63.58
2023-09-20T03:20:28.315Z,63.66
2023-09-20T03:21:30.993Z,63.35
2023-09-20T03:22:32.623Z,63.37
2023-09-20T03:23:34.300Z,63.00
2023-09-20T03:24:39.061Z,62.96
2023-09-20T03:25:41.300Z,63.24
2023-09-20T03:26:44.663Z,62.80
2023-09-20T03:27:47.312Z,62.71
2023-09-20T03:28:50.054Z,62.83
2023-09-20T03:29:53.980Z,63.23
2023-09-20T03:30:57.189Z,62.59
2023-09-20T03:31:59.745Z,62.69
2023-09-20T03:33:01.861Z,62.51
2023-09-20T03:34:05.136Z,62.21
2023-09-20T03:35:07.617Z,61.54
2023-09-20T03:36:18.231Z,62.54
2023-09-20T03:37:19.853Z,62.23
2023-09-20T03:38:21.448Z,62.48
2023-09-20T03:39:25.774Z,62.76
2023-09-20T03:40:29.537Z,62.57
2023-09-20T03:41:31.352Z,62.95
2023-09-20T03:42:33.427Z,63.11
2023-09-20T03:43:34.997Z,62.78
2023-09-20T03:44:36.620Z,62.17
2023-09-20T03:45:38.294Z,62.80
2023-09-20T03:46:40.085Z,62.69
2023-09-20T03:47:46.755Z,61.81
2023-09-20T03:48:48.747Z,62.90
2023-09-20T03:49:53.395Z,62.70
2023-09-20T03:50:54.970Z,62.22
2023-09-20T03:51:56.602Z,62.57
2023-09-20T03:52:58.257Z,63.12
2023-09-20T03:53:59.854Z,63.25
2023-09-20T03:55:01.434Z,62.18
2023-09-20T03:56:04.112Z,62.53
2023-09-20T03:57:08.028Z,62.07
2023-09-20T03:58:09.600Z,61.61
2023-09-20T03:59:13.808Z,61.51
2023-09-20T04:00:17.373Z,61.59
2023-09-20T04:01:19.245Z,60.95
2023-09-20T04:02:24.978Z,60.74
2023-09-20T04:03:26.800Z,60.99
2023-09-20T04:04:28.420Z,60.96
2023-09-20T04:05:43.347Z,60.77
2023-09-20T04:06:47.405Z,60.80
2023-09-20T04:07:49.949Z,60.97
2023-09-20T04:08:51.806Z,61.20
2023-09-20T04:09:54.228Z,62.09
2023-09-20T04:10:59.762Z,62.46
2023-09-20T04:12:01.379Z,62.71
2023-09-20T04:13:03.489Z,62.81
2023-09-20T04:14:08.565Z,63.17
2023-09-20T04:15:12.518Z,63.04
2023-09-20T04:16:17.876Z,63.13
2023-09-20T04:17:19.666Z,63.33
2023-09-20T04:18:21.322Z,63.50
2023-09-20T04:19:22.960Z,63.80
2023-09-20T04:20:24.808Z,64.41
2023-09-20T04:21:26.591Z,64.17
2023-09-20T04:22:28.889Z,64.36
2023-09-20T04:23:33.416Z,63.03
2023-09-20T04:24:35.293Z,63.38
2023-09-20T04:25:36.881Z,64.26
2023-09-20T04:26:38.540Z,64.65
2023-09-20T04:27:40.272Z,64.44
2023-09-20T04:28:42.058Z,64.39
2023-09-20T04:29:44.070Z,64.67
2023-09-20T04:30:45.725Z,64.64
2023-09-20T04:31:47.447Z,64.38
2023-09-20T04:32:51.968Z,64.88
2023-09-20T04:33:54.186Z,65.21
2023-09-20T04:34:57.636Z,65.45
2023-09-20T04:36:01.932Z,65.19
2023-09-20T04:37:03.699Z,65.07
2023-09-20T04:38:05.429Z,65.53
2023-09-20T04:39:07.652Z,65.60
2023-09-20T04:40:10.598Z,65.35
2023-09-20T04:41:15.053Z,65.93
2023-09-20T04:42:16.714Z,66.07
2023-09-20T04:43:18.315Z,66.71
2023-09-20T04:44:19.929Z,66.51
2023-09-20T04:45:21.719Z,66.29
2023-09-20T04:46:24.487Z,66.45
2023-09-20T04:47:26.439Z,66.06
2023-09-20T04:48:28.950Z,66.23
2023-09-20T04:49:30.542Z,66.04
2023-09-20T04:50:32.217Z,66.26
2023-09-20T04:51:34.312Z,66.71
2023-09-20T04:52:35.922Z,67.33
2023-09-20T04:53:38.943Z,67.72
2023-09-20T04:54:40.651Z,67.95
2023-09-20T04:55:42.216Z,67.88
2023-09-20T04:56:49.187Z,67.83
2023-09-20T04:57:51.361Z,68.39
2023-09-20T04:58:53.276Z,68.79
2023-09-20T04:59:54.894Z,68.51
2023-09-20T05:00:56.681Z,68.22
2023-09-20T05:01:58.301Z,67.98
2023-09-20T05:03:00.459Z,67.71
2023-09-20T05:04:02.331Z,67.62
2023-09-20T05:05:06.128Z,66.52
2023-09-20T05:06:08.573Z,66.85
2023-09-20T05:07:11.253Z,66.68
2023-09-20T05:08:14.409Z,65.51
2023-09-20T05:09:16.020Z,65.39
2023-09-20T05:10:17.640Z,65.60
2023-09-20T05:11:20.138Z,63.87
2023-09-20T05:12:22.889Z,62.64
2023-09-20T05:13:24.696Z,62.36
2023-09-20T05:14:26.926Z,61.39
2023-09-20T05:15:28.630Z,60.64
2023-09-20T05:16:30.248Z,59.74
2023-09-20T05:17:34.544Z,59.30
2023-09-20T05:18:36.373Z,58.19
2023-09-20T05:19:38.125Z,56.80
2023-09-20T05:20:40.193Z,56.14
2023-09-20T05:21:41.852Z,55.46
2023-09-20T05:22:43.440Z,54.64
2023-09-20T05:23:45.101Z,54.22
2023-09-20T05:24:46.677Z,54.58
2023-09-20T05:25:49.874Z,52.89
2023-09-20T05:26:51.866Z,52.03
2023-09-20T05:27:55.658Z,50.84
2023-09-20T05:28:59.416Z,50.68
2023-09-20T05:30:01.990Z,49.73
2023-09-20T05:31:06.950Z,49.16
2023-09-20T05:32:09.294Z,48.47
2023-09-20T05:33:13.145Z,47.64
2023-09-20T05:34:14.758Z,47.94
2023-09-20T05:35:16.564Z,47.66
2023-09-20T05:36:22.249Z,46.69
2023-09-20T05:37:23.990Z,45.88
2023-09-20T05:38:28.783Z,46.82
2023-09-20T05:39:31.727Z,46.73
2023-09-20T05:40:34.377Z,45.59
2023-09-20T05:41:37.863Z,45.14
2023-09-20T05:42:39.784Z,45.36
2023-09-20T05:43:43.953Z,45.29
2023-09-20T05:44:45.623Z,44.39
2023-09-20T05:45:47.536Z,44.85
2023-09-20T05:46:51.323Z,44.88
2023-09-20T05:47:53.745Z,44.44
2023-09-20T05:48:55.483Z,44.72
2023-09-20T05:49:57.930Z,43.50
2023-09-20T05:51:00.897Z,43.43
2023-09-20T05:52:06.982Z,43.40
2023-09-20T05:53:12.215Z,43.38
2023-09-20T05:54:14.567Z,44.00
2023-09-20T05:55:16.179Z,43.66
2023-09-20T05:56:19.890Z,43.46
2023-09-20T05:57:23.577Z,43.30
2023-09-20T05:58:26.915Z,42.34
2023-09-20T05:59:29.223Z,42.18
2023-09-20T06:00:31.265Z,42.21
2023-09-20T06:01:33.760Z,41.36
2023-09-20T06:03:38.257Z,40.97
2023-09-20T06:04:40.669Z,41.15
2023-09-20T06:05:42.403Z,41.31
2023-09-20T06:06:44.869Z,41.15
2023-09-20T06:07:46.430Z,40.50
2023-09-20T06:08:48.233Z,40.76
2023-09-20T06:09:49.909Z,40.42
2023-09-20T06:10:52.255Z,40.17
2023-09-20T06:11:53.912Z,39.83
2023-09-20T06:12:55.559Z,39.50
2023-09-20T06:13:57.166Z,39.51
2023-09-20T06:14:58.750Z,39.18
2023-09-20T06:16:00.642Z,38.20
2023-09-20T06:17:03.568Z,37.50
2023-09-20T06:18:05.423Z,37.23
2023-09-20T06:19:08.724Z,37.73
2023-09-20T06:20:20.420Z,37.64
2023-09-20T06:21:22.234Z,38.00
2023-09-20T06:22:32.583Z,37.34
2023-09-20T06:23:34.354Z,37.16
2023-09-20T06:24:36.128Z,36.55
2023-09-20T06:25:38.029Z,36.97
2023-09-20T06:26:45.186Z,36.13
2023-09-20T06:27:47.148Z,36.47
2023-09-20T06:28:50.791Z,35.60
2023-09-20T06:29:52.613Z,35.37
2023-09-20T06:30:54.359Z,35.65
2023-09-20T06:31:56.014Z,35.42
2023-09-20T06:32:57.725Z,35.14
2023-09-20T06:33:59.541Z,35.27
2023-09-20T06:35:05.599Z,35.38
2023-09-20T06:36:07.732Z,35.79
2023-09-20T06:37:10.945Z,35.62
2023-09-20T06:38:12.753Z,35.15
2023-09-20T06:39:14.938Z,34.48
2023-09-20T06:40:23.623Z,34.24
2023-09-20T06:41:26.432Z,34.02
2023-09-20T06:42:31.569Z,33.82
2023-09-20T06:43:33.227Z,34.24
2023-09-20T06:44:39.764Z,33.67
2023-09-20T06:45:50.898Z,34.21
2023-09-20T06:46:52.537Z,33.91
2023-09-20T06:47:57.016Z,33.67
2023-09-20T06:48:58.986Z,32.42
2023-09-20T06:50:03.897Z,33.06
2023-09-20T06:51:05.612Z,32.08
2023-09-20T06:52:07.273Z,32.62
2023-09-20T06:53:08.945Z,33.00
2023-09-20T06:54:10.813Z,33.30
2023-09-20T06:55:18.787Z,32.26
2023-09-20T06:56:20.780Z,32.49
2023-09-20T06:57:23.289Z,32.43
2023-09-20T06:58:26.259Z,31.00
2023-09-20T06:59:27.907Z,31.72
2023-09-20T07:00:30.223Z,31.24
2023-09-20T07:01:33.575Z,31.77
2023-09-20T07:02:35.315Z,31.58
2023-09-20T07:03:37.109Z,31.54
2023-09-20T07:04:40.483Z,30.59
2023-09-20T07:05:42.460Z,30.73
2023-09-20T07:06:44.172Z,31.32
2023-09-20T07:07:46.500Z,30.02
2023-09-20T07:08:48.183Z,30.15
2023-09-20T07:09:49.794Z,30.47
2023-09-20T07:10:52.572Z,30.57
2023-09-20T07:11:55.169Z,30.59
2023-09-20T07:12:57.280Z,30.51
2023-09-20T07:14:00.855Z,31.00
2023-09-20T07:15:07.345Z,30.36
2023-09-20T07:16:10.072Z,29.65
2023-09-20T07:17:13.044Z,29.87
2023-09-20T07:18:15.170Z,29.89
2023-09-20T07:19:19.955Z,29.95
2023-09-20T07:20:21.848Z,30.09
2023-09-20T07:21:23.442Z,29.42
2023-09-20T07:22:25.111Z,30.27
2023-09-20T07:23:26.942Z,29.32
2023-09-20T07:24:28.576Z,28.91
2023-09-20T07:25:30.342Z,27.89
2023-09-20T07:26:34.066Z,29.51
2023-09-20T07:27:35.896Z,29.08
2023-09-20T07:28:38.088Z,28.63
2023-09-20T07:29:41.502Z,28.21
2023-09-20T07:30:46.081Z,28.32
2023-09-20T07:31:49.442Z,27.57
2023-09-20T07:33:08.731Z,28.68
2023-09-20T07:34:17.402Z,28.15
2023-09-20T07:35:28.760Z,27.92
2023-09-20T07:36:37.916Z,27.59
2023-09-20T07:37:44.514Z,27.33
2023-09-20T07:38:46.610Z,26.91
2023-09-20T07:39:48.529Z,27.50
2023-09-20T07:40:51.871Z,26.66
2023-09-20T07:41:54.116Z,27.98
2023-09-20T07:43:02.011Z,26.63
2023-09-20T07:44:06.926Z,27.52
2023-09-20T07:45:14.335Z,27.08
2023-09-20T07:46:16.558Z,27.36
2023-09-20T07:47:21.439Z,27.12
2023-09-20T07:48:23.939Z,27.02
2023-09-20T07:49:25.582Z,25.91
2023-09-20T07:50:27.900Z,26.88
2023-09-20T07:51:32.766Z,26.39
2023-09-20T07:52:36.740Z,26.63
2023-09-20T07:53:39.181Z,26.95
2023-09-20T07:54:41.011Z,25.55
2023-09-20T07:55:45.673Z,25.85
2023-09-20T07:56:51.869Z,26.23
2023-09-20T07:57:54.160Z,25.48
2023-09-20T07:58:56.662Z,25.62
2023-09-20T08:00:00.722Z,25.03
2023-09-20T08:01:11.789Z,24.78
2023-09-20T08:02:16.691Z,26.15
2023-09-20T08:03:20.004Z,25.07
2023-09-20T08:04:23.219Z,25.08
2023-09-20T08:05:25.115Z,26.05
2023-09-20T08:06:29.322Z,25.35
2023-09-20T08:07:30.949Z,24.83
2023-09-20T08:08:32.591Z,26.33
2023-09-20T08:09:34.221Z,25.23
2023-09-20T08:10:37.722Z,25.02
2023-09-20T08:11:39.353Z,25.16
2023-09-20T08:12:40.981Z,23.76
2023-09-20T08:13:42.678Z,25.50
2023-09-20T08:14:44.300Z,26.94
2023-09-20T08:15:45.996Z,23.94
2023-09-20T08:17:06.057Z,23.60
2023-09-20T08:18:26.422Z,23.95
2023-09-20T08:19:32.214Z,23.61
2023-09-20T08:20:38.712Z,23.69
2023-09-20T08:21:41.157Z,23.20
2023-09-20T08:23:01.669Z,24.47
2023-09-20T08:24:24.143Z,23.71
2023-09-20T08:25:44.098Z,23.65
2023-09-20T08:27:04.643Z,24.29
2023-09-20T08:28:25.086Z,23.46
2023-09-20T08:29:45.328Z,24.32
2023-09-20T08:31:08.788Z,24.01
2023-09-20T08:32:29.127Z,22.86
2023-09-20T08:33:49.293Z,23.51
2023-09-20T08:35:09.904Z,22.64
2023-09-20T08:36:30.017Z,22.49
2023-09-20T08:37:50.095Z,22.92
2023-09-20T08:39:14.787Z,22.81
2023-09-20T08:40:40.734Z,22.35
2023-09-20T08:42:00.779Z,24.69
2023-09-20T08:43:21.419Z,25.71
2023-09-20T08:44:41.460Z,25.29
2023-09-20T08:46:04.521Z,23.39
2023-09-20T08:47:28.402Z,24.08
2023-09-20T08:48:48.967Z,22.99
2023-09-20T08:50:09.750Z,22.32
2023-09-20T08:51:29.802Z,22.96
2023-09-20T08:52:50.257Z,23.37
2023-09-20T08:54:12.963Z,22.30
2023-09-20T08:55:33.342Z,22.12
2023-09-20T08:56:53.962Z,21.62
2023-09-20T08:58:15.510Z,21.68
2023-09-20T08:59:35.919Z,22.62
2023-09-20T09:00:40.503Z,21.57
2023-09-20T09:01:47.976Z,21.13
2023-09-20T09:02:53.613Z,22.69
2023-09-20T09:04:00.498Z,22.03
2023-09-20T09:05:05.204Z,23.54
2023-09-20T09:06:09.410Z,21.96
2023-09-20T09:07:11.289Z,21.04
2023-09-20T09:08:14.656Z,22.89
2023-09-20T09:09:16.437Z,21.50
2023-09-20T09:10:19.398Z,22.04
2023-09-20T09:11:21.256Z,22.08
2023-09-20T09:12:22.822Z,23.06
2023-09-20T09:13:24.749Z,22.52
2023-09-20T09:14:29.187Z,23.39
2023-09-20T09:15:31.084Z,22.21
2023-09-20T09:16:34.207Z,20.89
2023-09-20T09:17:45.000Z,21.61
2023-09-20T09:18:46.763Z,20.64
2023-09-20T09:19:49.075Z,22.28
2023-09-20T09:20:53.773Z,21.43
2023-09-20T09:21:56.869Z,21.01
2023-09-20T09:22:58.537Z,20.80
2023-09-20T09:24:00.159Z,21.60
2023-09-20T09:25:01.749Z,22.34
2023-09-20T09:26:03.487Z,22.13
2023-09-20T09:27:06.881Z,20.58
2023-09-20T09:28:08.571Z,21.50
2023-09-20T09:29:17.847Z,23.46
2023-09-20T09:30:19.582Z,22.44
2023-09-20T09:31:21.457Z,21.90
2023-09-20T09:32:24.153Z,22.29
2023-09-20T09:33:27.900Z,22.54
2023-09-20T09:34:29.686Z,21.19
2023-09-20T09:35:40.917Z,21.73
2023-09-20T09:36:47.160Z,22.52
2023-09-20T09:37:49.117Z,21.78
2023-09-20T09:38:50.969Z,22.55
2023-09-20T09:40:01.245Z,21.64
2023-09-20T09:41:03.966Z,20.49
2023-09-20T09:42:05.628Z,22.71
2023-09-20T09:43:16.949Z,20.87
2023-09-20T09:44:18.838Z,22.36
2023-09-20T09:45:33.275Z,20.95
2023-09-20T09:46:42.683Z,20.62
2023-09-20T09:47:44.469Z,20.88
2023-09-20T09:48:48.009Z,20.67
2023-09-20T09:49:50.288Z,21.45
2023-09-20T09:50:54.232Z,20.93
2023-09-20T09:51:56.206Z,21.32
2023-09-20T09:52:59.503Z,19.77
2023-09-20T09:54:03.071Z,20.52
2023-09-20T09:55:06.644Z,21.32
2023-09-20T09:56:08.313Z,19.80
2023-09-20T09:57:09.944Z,20.36
2023-09-20T09:58:11.573Z,21.80
2023-09-20T09:59:13.700Z,20.49
2023-09-20T10:00:17.330Z,20.29
2023-09-20T10:01:20.936Z,21.52
2023-09-20T10:02:27.388Z,20.79
2023-09-20T10:03:31.287Z,21.33
2023-09-20T10:04:35.000Z,21.85
2023-09-20T10:05:37.488Z,21.46
2023-09-20T10:06:56.995Z,21.48
2023-09-20T10:08:02.722Z,21.21
2023-09-20T10:09:11.543Z,20.50
2023-09-20T10:10:17.843Z,21.93
2023-09-20T10:11:22.683Z,22.66
2023-09-20T10:12:26.491Z,19.94
2023-09-20T10:13:32.115Z,21.54
2023-09-20T10:14:37.523Z,21.11
2023-09-20T10:15:39.692Z,21.08
2023-09-20T10:16:43.989Z,21.29
2023-09-20T10:17:53.335Z,20.38
2023-09-20T10:18:59.341Z,20.41
2023-09-20T10:20:09.419Z,20.78
2023-09-20T10:21:16.287Z,20.11
2023-09-20T10:22:22.929Z,20.16
2023-09-20T10:23:25.093Z,20.26
2023-09-20T10:24:30.448Z,20.65
2023-09-20T10:25:36.664Z,21.26
2023-09-20T10:26:40.885Z,20.73
2023-09-20T10:27:42.733Z,21.49
2023-09-20T10:28:48.541Z,21.52
2023-09-20T10:30:13.104Z,20.69
2023-09-20T10:31:16.890Z,20.47
2023-09-20T10:32:19.234Z,21.33
2023-09-20T10:33:46.708Z,20.58
2023-09-20T10:35:20.473Z,21.33
2023-09-20T10:36:30.000Z,23.04
2023-09-20T10:37:33.369Z,21.10
2023-09-20T10:38:35.049Z,20.74
2023-09-20T10:39:39.404Z,20.61
2023-09-20T10:41:04.409Z,21.33
2023-09-20T10:42:13.761Z,22.68
2023-09-20T10:43:37.050Z,21.10
2023-09-20T10:44:42.806Z,21.67
2023-09-20T10:45:51.642Z,21.33
2023-09-20T10:46:54.720Z,22.24
2023-09-20T10:47:57.313Z,21.46
2023-09-20T10:48:59.027Z,22.16
2023-09-20T10:50:00.782Z,21.08
2023-09-20T10:51:05.128Z,20.68
2023-09-20T10:52:06.813Z,20.35
2023-09-20T10:53:11.624Z,19.73
2023-09-20T10:54:37.735Z,21.16
2023-09-20T10:55:40.075Z,20.72
2023-09-20T10:56:45.740Z,21.34
2023-09-20T10:57:47.956Z,23.19
2023-09-20T10:58:50.213Z,21.85
2023-09-20T10:59:54.645Z,20.81
2023-09-20T11:00:57.145Z,21.03
2023-09-20T11:02:10.184Z,21.65
2023-09-20T11:03:12.856Z,20.76
2023-09-20T11:04:14.613Z,20.50
2023-09-20T11:05:17.930Z,22.16
2023-09-20T11:06:19.719Z,21.31
2023-09-20T11:07:21.544Z,21.62
2023-09-20T11:08:25.665Z,21.62
2023-09-20T11:09:39.534Z,21.52
2023-09-20T11:10:41.843Z,21.79
2023-09-20T11:11:44.532Z,21.40
2023-09-20T11:12:47.023Z,21.27
2023-09-20T11:13:50.381Z,20.66
2023-09-20T11:14:52.901Z,21.90
2023-09-20T11:15:56.216Z,22.07
2023-09-20T11:16:58.231Z,22.25
2023-09-20T11:18:00.311Z,21.20
2023-09-20T11:19:02.083Z,23.24
2023-09-20T11:20:07.420Z,22.11
2023-09-20T11:21:09.164Z,23.45
2023-09-20T11:22:11.190Z,23.05
2023-09-20T11:23:14.379Z,22.99
2023-09-20T11:24:16.661Z,23.13
2023-09-20T11:25:18.350Z,22.42
2023-09-20T11:26:30.027Z,23.36
2023-09-20T11:27:35.904Z,23.33
2023-09-20T11:28:38.471Z,23.02
2023-09-20T11:29:45.101Z,23.08
2023-09-20T11:30:52.696Z,24.28
2023-09-20T11:32:00.457Z,23.88
2023-09-20T11:33:05.425Z,24.02
2023-09-20T11:34:07.467Z,25.15
2023-09-20T11:35:09.495Z,24.01
2023-09-20T11:36:20.648Z,23.57
2023-09-20T11:37:23.614Z,24.23
2023-09-20T11:38:25.415Z,23.58
2023-09-20T11:39:30.371Z,23.48
2023-09-20T11:40:33.157Z,23.71
2023-09-20T11:41:36.587Z,23.97
2023-09-20T11:42:38.488Z,24.48
2023-09-20T11:43:42.356Z,24.23
2023-09-20T11:44:44.031Z,24.47
2023-09-20T11:45:57.688Z,24.61
2023-09-20T11:47:02.499Z,25.54
2023-09-20T11:48:10.212Z,26.25
2023-09-20T11:49:12.743Z,26.65
2023-09-20T11:50:15.583Z,25.25
2023-09-20T11:51:18.609Z,25.36
2023-09-20T11:52:21.348Z,25.86
2023-09-20T11:53:23.453Z,25.61
2023-09-20T11:54:35.537Z,25.92
2023-09-20T11:55:42.575Z,25.66
2023-09-20T11:56:48.974Z,25.37
2023-09-20T11:57:51.126Z,27.89
2023-09-20T11:58:54.831Z,27.06
2023-09-20T11:59:56.885Z,26.70
2023-09-20T12:00:59.020Z,27.66
2023-09-20T12:02:00.669Z,28.41
2023-09-20T12:03:03.772Z,26.57
2023-09-20T12:04:05.844Z,27.08
2023-09-20T12:05:08.661Z,27.02
2023-09-20T12:06:10.405Z,27.03
2023-09-20T12:07:12.105Z,29.11
2023-09-20T12:08:13.705Z,27.63
2023-09-20T12:09:15.365Z,27.96
2023-09-20T12:10:17.678Z,27.18
2023-09-20T12:11:19.633Z,28.76
2023-09-20T12:12:21.246Z,28.70
2023-09-20T12:13:23.490Z,26.89
2023-09-20T12:14:25.621Z,27.32
2023-09-20T12:15:27.368Z,27.38
2023-09-20T12:16:29.098Z,27.08
2023-09-20T12:17:30.783Z,26.93
2023-09-20T12:18:32.524Z,27.33
2023-09-20T12:19:34.686Z,27.83
2023-09-20T12:20:39.408Z,27.20
2023-09-20T12:21:45.716Z,27.42
2023-09-20T12:22:47.366Z,27.08
2023-09-20T12:23:49.144Z,26.83
2023-09-20T12:24:50.793Z,26.56
2023-09-20T12:25:52.513Z,27.56
2023-09-20T12:26:55.555Z,28.61
2023-09-20T12:27:57.482Z,27.60
2023-09-20T12:28:59.203Z,27.87
2023-09-20T12:30:01.382Z,28.27
2023-09-20T12:31:04.396Z,28.30
2023-09-20T12:32:06.051Z,29.64
2023-09-20T12:33:08.801Z,28.36
2023-09-20T12:34:11.267Z,28.68
2023-09-20T12:35:14.629Z,28.13
2023-09-20T12:36:16.567Z,28.91
2023-09-20T12:37:20.753Z,28.94
2023-09-20T12:38:23.180Z,28.73
2023-09-20T12:39:25.699Z,28.44
2023-09-20T12:40:28.658Z,28.18
2023-09-20T12:41:30.644Z,28.90
2023-09-20T12:42:34.835Z,28.85
2023-09-20T12:43:39.952Z,28.48
2023-09-20T12:44:42.196Z,28.23
2023-09-20T12:45:47.811Z,29.98
2023-09-20T12:46:49.560Z,30.11
2023-09-20T12:47:51.246Z,28.27
2023-09-20T12:48:55.698Z,28.09
2023-09-20T12:49:57.293Z,28.78
2023-09-20T12:51:00.896Z,28.41
2023-09-20T12:52:04.993Z,28.01
2023-09-20T12:53:09.334Z,28.42
2023-09-20T12:54:11.306Z,28.37
2023-09-20T12:55:14.302Z,28.83
2023-09-20T12:56:17.247Z,28.30
2023-09-20T12:57:18.843Z,28.83
2023-09-20T12:58:20.418Z,28.42
2023-09-20T12:59:28.184Z,28.42
2023-09-20T13:00:43.165Z,28.55
2023-09-20T13:01:47.852Z,28.05
2023-09-20T13:02:49.576Z,27.12
2023-09-20T13:03:52.828Z,27.29
2023-09-20T13:04:56.946Z,27.18
2023-09-20T13:05:59.069Z,28.40
2023-09-20T13:07:00.965Z,27.00
2023-09-20T13:08:02.558Z,27.45
2023-09-20T13:09:04.384Z,28.04
2023-09-20T13:10:10.504Z,28.92
2023-09-20T13:11:12.162Z,28.73
2023-09-20T13:12:14.344Z,28.49
2023-09-20T13:13:16.118Z,28.24
2023-09-20T13:14:20.718Z,28.21
2023-09-20T13:15:22.648Z,27.96
2023-09-20T13:16:25.932Z,28.84
2023-09-20T13:17:28.249Z,28.82
2023-09-20T13:18:30.233Z,28.71
2023-09-20T13:19:33.256Z,28.20
2023-09-20T13:20:36.431Z,28.13
2023-09-20T13:21:38.579Z,28.42
2023-09-20T13:22:44.015Z,28.60
2023-09-20T13:23:45.893Z,28.17
2023-09-20T13:24:51.955Z,27.69
2023-09-20T13:25:54.226Z,28.09
2023-09-20T13:26:55.850Z,28.22
2023-09-20T13:27:58.086Z,28.21
2023-09-20T13:29:00.420Z,28.05
2023-09-20T13:30:06.271Z,27.85
2023-09-20T13:31:08.815Z,28.07
2023-09-20T13:32:10.935Z,27.62
2023-09-20T13:33:16.047Z,28.16
2023-09-20T13:34:17.959Z,27.89
2023-09-20T13:35:20.336Z,27.04
2023-09-20T13:36:22.436Z,27.79
2023-09-20T13:37:25.810Z,27.84
2023-09-20T13:38:27.427Z,28.30
2023-09-20T13:39:29.000Z,29.58
2023-09-20T13:40:31.748Z,27.62
2023-09-20T13:41:33.408Z,27.58
2023-09-20T13:42:37.441Z,29.27
2023-09-20T13:43:39.405Z,29.14
2023-09-20T13:44:43.503Z,28.23
2023-09-20T13:45:45.636Z,27.94
2023-09-20T13:46:48.416Z,28.22